METAR Data
IDs: Format: Raw Decoded Include TAF

Data at: 1601 UTC 18 Feb 2019

METAR for:KPRO (Perry Muni, IA, US)
Text:KPRO 181555Z AUTO 00000KT 10SM CLR M12/M14 A3044 RMK AO2 T11251143
Temperature:-12.5°C ( 10°F)
Dewpoint:-14.3°C ( 6°F) [RH = 86%]
Pressure (altimeter):30.44 inches Hg (1030.9 mb)
Winds:calm
Visibility:10 or more sm (16+ km)
Ceiling:at least 12,000 feet AGL
Clouds:sky clear below 12,000 feet AGL
QC Flag:automated observation with no human augmentation